Archival Weather

Bob Hope

Burbank, California (KBUR)

Report from: Monday, January 29, 2024 12:53 AM PST
Current time: Friday, June 14, 2024 4:13 AM PDT

Current weather – Weather history – Daily summaries
Weather forecast

Temperature13.3°C (55.9°F)
Dew point3.9°C (39.0°F)
Winds Calm
Visibility10 mi. (16.1 km)
Clouds Sky clear
Altimeter30.14 in.Hg (1021 mB)
Relative humidity53 %
Density altitude-289 ft. (-88 m)
Sea-level pressure101.9 kPa (1019 mB, 30.10 in.Hg)
Remarks Automated weather observing station with precipitation discriminator
Pressure falling more quickly
Flight conditions Visual Meteorological Conditions
Raw dataKBUR 290853Z 00000KT 10SM CLR 13/04 A3014 RMK AO2 SLP194 T01330039 58001
An error has occurred. This application may no longer respond until reloaded. Reload 🗙